Time;durP1;ratioP1;P1;durP2;ratioP2;P2;SDS_P1;SDS_P2;PMS_P1;PMS_P2;Temp;Humidity;BMP_temperature;BMP_pressure;BME280_temperature;BME280_humidity;BME280_pressure;Samples;Min_cycle;Max_cycle;Signal;HPM_P1;HPM_P2
2023/08/06 00:00:31;;;;;;;3.95;2.35;;;;;;;16.28;52.54;100034.72;5052082;28;20121;-84
2023/08/06 00:03:04;;;;;;;3.90;2.50;;;;;;;16.26;52.67;100037.66;5050393;28;20059;-84
2023/08/06 00:05:34;;;;;;;3.35;2.30;;;;;;;16.27;52.62;100033.00;5048411;28;20495;-84
2023/08/06 00:08:03;;;;;;;3.75;2.50;;;;;;;16.29;52.71;100036.44;5063842;28;20048;-83
2023/08/06 00:10:31;;;;;;;3.60;2.15;;;;;;;16.26;52.77;100032.16;5062826;28;20040;-84
2023/08/06 00:12:59;;;;;;;3.75;2.42;;;;;;;16.25;52.72;100024.91;5055872;28;20076;-84
2023/08/06 00:15:27;;;;;;;3.65;2.17;;;;;;;16.24;52.71;100028.75;5055387;28;20060;-84
2023/08/06 00:17:55;;;;;;;3.88;2.25;;;;;;;16.24;52.55;100019.59;5054158;28;20135;-84
2023/08/06 00:20:23;;;;;;;3.08;2.17;;;;;;;16.24;52.20;100022.38;5054311;28;20201;-84
2023/08/06 00:22:51;;;;;;;4.05;2.30;;;;;;;16.23;52.46;100013.22;5054760;28;20546;-84
2023/08/06 00:25:20;;;;;;;5.45;2.25;;;;;;;16.23;52.43;100013.22;5055838;28;20079;-84
2023/08/06 00:27:48;;;;;;;4.07;2.25;;;;;;;16.19;52.42;100008.25;5043416;28;20122;-84
2023/08/06 00:30:16;;;;;;;3.95;2.30;;;;;;;16.19;52.46;100011.03;5062115;28;20049;-83
2023/08/06 00:32:44;;;;;;;3.22;2.20;;;;;;;16.17;52.49;100016.72;5047919;28;20041;-84
2023/08/06 00:35:14;;;;;;;3.40;2.22;;;;;;;16.18;52.21;100017.59;5048302;28;20705;-85
2023/08/06 00:37:42;;;;;;;3.30;2.20;;;;;;;16.15;52.35;100009.69;5054368;28;20052;-84
2023/08/06 00:40:10;;;;;;;3.80;2.35;;;;;;;16.14;52.41;100014.34;5054584;28;20128;-84
2023/08/06 00:42:39;;;;;;;4.07;2.13;;;;;;;16.14;52.46;100019.84;5062094;28;20044;-84
2023/08/06 00:45:08;;;;;;;4.45;2.10;;;;;;;16.12;52.29;100018.31;5052575;28;20079;-84
2023/08/06 00:47:36;;;;;;;3.45;2.10;;;;;;;16.08;52.40;100014.25;5055861;28;20099;-83
2023/08/06 00:50:07;;;;;;;3.95;2.28;;;;;;;16.08;52.25;100011.50;5052613;28;20037;-84
2023/08/06 00:52:36;;;;;;;4.72;2.22;;;;;;;16.07;52.07;100020.81;5043389;28;20474;-82
2023/08/06 00:55:07;;;;;;;3.88;2.10;;;;;;;16.06;52.45;100014.44;5067110;28;20045;-84
2023/08/06 00:57:35;;;;;;;3.97;2.20;;;;;;;16.04;52.34;100012.91;5053652;28;20048;-83
2023/08/06 01:00:06;;;;;;;3.53;2.20;;;;;;;16.06;52.32;100013.56;5052514;28;20444;-83
2023/08/06 01:02:34;;;;;;;4.85;2.28;;;;;;;16.03;52.58;100013.94;5071059;28;20507;-83
2023/08/06 01:05:03;;;;;;;3.13;2.05;;;;;;;16.03;52.51;100012.03;5073942;28;20110;-83
2023/08/06 01:07:46;;;;;;;4.25;1.98;;;;;;;16.06;52.52;100008.06;5055568;28;20518;-83
2023/08/06 01:10:25;;;;;;;3.33;2.03;;;;;;;16.04;52.40;100007.38;5052260;28;20037;-82
2023/08/06 01:13:04;;;;;;;4.03;1.88;;;;;;;16.03;52.71;100006.53;5058873;28;20037;-84
2023/08/06 01:15:40;;;;;;;3.50;2.08;;;;;;;16.04;51.94;100001.88;5060418;28;20700;-84
2023/08/06 01:18:08;;;;;;;3.83;2.30;;;;;;;16.02;52.14;99995.66;5054853;28;20046;-85
2023/08/06 01:20:38;;;;;;;3.95;2.10;;;;;;;16.02;51.98;99998.44;5079140;28;20060;-84
2023/08/06 01:23:06;;;;;;;4.25;2.05;;;;;;;16.01;52.52;100000.31;5056441;28;20051;-84
2023/08/06 01:25:36;;;;;;;4.47;2.40;;;;;;;16.01;52.29;99996.72;5080981;28;20101;-85
2023/08/06 01:28:12;;;;;;;3.40;1.90;;;;;;;16.02;52.11;99999.28;5089122;28;20048;-83
2023/08/06 01:30:42;;;;;;;3.13;1.85;;;;;;;16.00;52.43;99993.09;5068906;28;20041;-84
2023/08/06 01:33:17;;;;;;;2.90;1.90;;;;;;;16.01;52.36;99993.94;5074121;28;20128;-82
2023/08/06 01:35:49;;;;;;;2.92;1.80;;;;;;;16.01;52.35;99993.94;5082443;28;20075;-83
2023/08/06 01:38:17;;;;;;;3.88;2.03;;;;;;;15.99;52.01;99993.31;5069835;28;20044;-83
2023/08/06 01:40:45;;;;;;;3.97;2.10;;;;;;;15.99;52.33;99988.66;5064112;28;20059;-84
2023/08/06 01:43:13;;;;;;;3.33;2.00;;;;;;;15.98;52.10;99992.44;5041544;28;20055;-83
2023/08/06 01:45:41;;;;;;;3.00;1.90;;;;;;;15.99;52.37;99983.13;5054239;28;20040;-83
2023/08/06 01:48:09;;;;;;;3.17;2.10;;;;;;;16.00;52.69;99983.97;5077324;28;20404;-83
2023/08/06 01:50:37;;;;;;;3.78;2.17;;;;;;;15.98;52.58;99983.31;5054700;28;20114;-82
2023/08/06 01:53:06;;;;;;;3.40;2.10;;;;;;;16.02;52.82;99974.44;5055693;28;20471;-84
2023/08/06 01:55:34;;;;;;;3.40;2.10;;;;;;;16.00;52.63;99982.06;5056767;28;20068;-84
2023/08/06 01:58:02;;;;;;;3.35;2.00;;;;;;;16.00;52.24;99978.47;5060620;28;20072;-84
2023/08/06 02:00:30;;;;;;;3.67;2.20;;;;;;;16.00;52.48;99973.78;5065815;28;20043;-85
2023/08/06 02:02:58;;;;;;;4.25;2.08;;;;;;;16.00;52.48;99968.25;5059680;28;20098;-84
2023/08/06 02:05:26;;;;;;;3.28;2.00;;;;;;;16.01;52.43;99974.63;5059463;28;20466;-84
2023/08/06 02:07:54;;;;;;;4.18;2.38;;;;;;;15.99;52.84;99972.09;5062221;28;20067;-84
2023/08/06 02:10:23;;;;;;;5.38;2.38;;;;;;;16.01;52.59;99975.50;5062961;28;20453;-84
2023/08/06 02:12:51;;;;;;;3.70;2.13;;;;;;;15.99;52.68;99965.72;5050988;28;20052;-84
2023/08/06 02:15:19;;;;;;;3.58;2.33;;;;;;;16.00;52.23;99970.19;5055841;28;20045;-84
2023/08/06 02:17:47;;;;;;;4.70;2.15;;;;;;;15.99;52.38;99965.72;5067209;28;20045;-83
2023/08/06 02:20:18;;;;;;;4.82;2.38;;;;;;;15.98;52.58;99962.09;5055230;28;20040;-82
2023/08/06 02:22:49;;;;;;;3.58;2.15;;;;;;;15.98;52.50;99967.63;5055542;28;20120;-83
2023/08/06 02:25:17;;;;;;;3.58;2.20;;;;;;;15.95;52.41;99967.97;5046668;28;20668;-84
2023/08/06 02:27:46;;;;;;;4.43;2.50;;;;;;;15.96;52.63;99966.94;5061071;28;20044;-84
2023/08/06 02:30:14;;;;;;;4.10;2.45;;;;;;;15.94;52.53;99962.66;5054176;28;20044;-83
2023/08/06 02:32:42;;;;;;;3.92;2.30;;;;;;;15.94;52.48;99959.88;5048205;28;20106;-84
2023/08/06 02:35:10;;;;;;;4.47;2.30;;;;;;;15.95;52.53;99958.84;5050401;28;20048;-83
2023/08/06 02:37:39;;;;;;;3.90;2.17;;;;;;;15.94;52.77;99959.88;5052669;28;20044;-83
2023/08/06 02:40:08;;;;;;;3.70;2.35;;;;;;;15.94;52.68;99963.50;5045886;28;20053;-84
2023/08/06 02:42:36;;;;;;;4.35;2.47;;;;;;;15.93;52.48;99958.16;5052393;28;20049;-82
2023/08/06 02:45:06;;;;;;;3.10;1.88;;;;;;;15.96;52.70;99958.66;5051232;28;20040;-82
2023/08/06 02:47:35;;;;;;;4.28;2.55;;;;;;;15.93;52.40;99949.91;5057048;28;20500;-83
2023/08/06 02:50:03;;;;;;;3.35;2.20;;;;;;;15.93;52.73;99947.13;5046814;28;20033;-83
2023/08/06 02:52:31;;;;;;;4.63;2.10;;;;;;;15.94;52.91;99951.63;5060717;28;20037;-83
2023/08/06 02:55:00;;;;;;;3.50;2.13;;;;;;;15.92;52.84;99949.03;5054267;28;20056;-82
2023/08/06 02:57:30;;;;;;;3.42;1.95;;;;;;;15.94;52.83;99952.47;5058451;28;20056;-83
2023/08/06 02:59:58;;;;;;;3.20;1.90;;;;;;;15.95;52.59;99940.38;5054964;28;20076;-84
2023/08/06 03:02:28;;;;;;;3.58;2.20;;;;;;;15.97;52.59;99940.19;5055706;28;20044;-83
2023/08/06 03:05:13;;;;;;;3.55;2.05;;;;;;;15.95;52.78;99937.63;5058148;28;20052;-82
2023/08/06 03:07:46;;;;;;;3.03;1.90;;;;;;;15.94;52.91;99929.53;5068630;28;20401;-84
2023/08/06 03:10:23;;;;;;;3.40;2.25;;;;;;;15.96;52.83;99930.22;5056442;28;20058;-84
2023/08/06 03:12:53;;;;;;;3.78;2.30;;;;;;;15.95;52.37;99925.72;5067797;28;20045;-83
2023/08/06 03:15:23;;;;;;;3.88;2.00;;;;;;;15.94;52.35;99921.25;5077154;28;20104;-83
2023/08/06 03:17:57;;;;;;;3.83;2.13;;;;;;;15.97;53.00;99923.66;5075204;28;20108;-83
2023/08/06 03:20:26;;;;;;;3.63;2.28;;;;;;;15.96;52.39;99927.44;5066083;28;20037;-83
2023/08/06 03:22:56;;;;;;;5.75;2.42;;;;;;;15.93;52.68;99917.63;5056214;28;20055;-83
2023/08/06 03:25:24;;;;;;;3.72;2.00;;;;;;;15.94;52.63;99926.78;5061494;28;20040;-82
2023/08/06 03:27:52;;;;;;;3.30;1.73;;;;;;;15.92;52.69;99921.44;5064831;28;20072;-82
2023/08/06 03:30:21;;;;;;;3.20;1.75;;;;;;;15.93;52.35;99927.81;5055614;28;20045;-83
2023/08/06 03:32:51;;;;;;;3.58;2.22;;;;;;;15.92;52.55;99920.63;5056664;28;20048;-83
2023/08/06 03:35:22;;;;;;;2.70;1.85;;;;;;;15.93;53.13;99922.31;5066617;28;20045;-83
2023/08/06 03:37:51;;;;;;;3.65;1.98;;;;;;;15.88;52.49;99915.47;5055575;28;20036;-83
2023/08/06 03:40:20;;;;;;;4.35;1.98;;;;;;;15.91;52.73;99918.91;5048440;28;20131;-84
2023/08/06 03:42:48;;;;;;;3.20;2.00;;;;;;;15.89;52.92;99921.84;5058395;28;20037;-83
2023/08/06 03:45:16;;;;;;;3.60;1.90;;;;;;;15.89;52.79;99914.44;5053245;28;20075;-83
2023/08/06 03:47:44;;;;;;;4.30;2.10;;;;;;;15.88;53.07;99915.47;5051942;28;20048;-83
2023/08/06 03:50:13;;;;;;;3.65;2.03;;;;;;;15.89;52.99;99919.09;5048113;28;20098;-83
2023/08/06 03:52:43;;;;;;;4.60;1.90;;;;;;;15.90;53.00;99918.03;5055487;28;20059;-82
2023/08/06 03:55:12;;;;;;;2.80;1.75;;;;;;;15.88;53.04;99914.59;5055180;28;20044;-83
2023/08/06 03:57:39;;;;;;;3.53;2.22;;;;;;;15.87;52.76;99918.41;5054843;28;20040;-83
2023/08/06 04:00:09;;;;;;;4.13;2.00;;;;;;;15.87;53.00;99919.28;5056059;28;20554;-84
2023/08/06 04:02:49;;;;;;;3.30;1.75;;;;;;;15.84;52.55;99913.28;5055032;28;20059;-83
2023/08/06 04:05:17;;;;;;;3.42;2.20;;;;;;;15.84;53.21;99914.13;5055574;28;20064;-83
2023/08/06 04:07:46;;;;;;;3.70;1.75;;;;;;;15.87;53.03;99915.66;5053277;28;20098;-84
2023/08/06 04:10:14;;;;;;;3.75;1.83;;;;;;;15.84;52.84;99916.03;5072588;28;20466;-83
2023/08/06 04:12:42;;;;;;;2.95;1.70;;;;;;;15.85;53.06;99912.22;5052383;28;20442;-83
2023/08/06 04:15:10;;;;;;;3.15;2.03;;;;;;;15.84;52.90;99916.03;5055263;28;20468;-83
2023/08/06 04:17:38;;;;;;;3.20;1.83;;;;;;;15.82;52.81;99916.25;5053902;28;20087;-83
2023/08/06 04:20:08;;;;;;;3.42;2.00;;;;;;;15.82;52.86;99907.97;5043152;28;20037;-83
2023/08/06 04:22:36;;;;;;;4.10;1.95;;;;;;;15.83;52.73;99917.09;5039532;28;20043;-83
2023/08/06 04:25:07;;;;;;;2.90;1.80;;;;;;;15.86;53.15;99911.19;5051385;28;20033;-83
2023/08/06 04:27:36;;;;;;;4.00;1.80;;;;;;;15.81;52.93;99914.53;5054265;28;20127;-83
2023/08/06 04:30:06;;;;;;;3.53;1.88;;;;;;;15.83;53.01;99914.34;5065496;28;20044;-83
2023/08/06 04:32:38;;;;;;;2.83;1.80;;;;;;;15.80;53.62;99910.06;5053273;28;20043;-83
2023/08/06 04:35:07;;;;;;;4.32;2.00;;;;;;;15.83;53.15;99914.34;5056507;28;20037;-84
2023/08/06 04:37:36;;;;;;;2.80;1.73;;;;;;;15.84;53.28;99916.03;5056370;28;20098;-84
2023/08/06 04:40:07;;;;;;;3.40;1.80;;;;;;;15.85;52.84;99912.22;5055496;28;20421;-84
2023/08/06 04:42:35;;;;;;;3.25;1.80;;;;;;;15.85;53.50;99918.59;5054266;28;20455;-84
2023/08/06 04:45:03;;;;;;;3.17;2.00;;;;;;;15.86;53.37;99916.69;5071527;28;20142;-84
2023/08/06 04:47:31;;;;;;;3.00;1.70;;;;;;;15.85;53.18;99917.75;5066516;28;20056;-84
2023/08/06 04:49:59;;;;;;;2.95;1.83;;;;;;;15.85;53.11;99918.59;5057195;28;20075;-84
2023/08/06 04:52:28;;;;;;;3.88;2.08;;;;;;;15.84;53.55;99921.53;5056701;28;20049;-84
2023/08/06 04:54:56;;;;;;;4.13;2.45;;;;;;;15.85;52.80;99913.09;5061523;28;20047;-84
2023/08/06 04:57:25;;;;;;;2.85;1.75;;;;;;;15.87;53.12;99923.94;5076038;28;20052;-83
2023/08/06 04:59:53;;;;;;;3.70;1.75;;;;;;;15.84;53.49;99921.53;5071769;28;20044;-84
2023/08/06 05:02:21;;;;;;;3.03;2.00;;;;;;;15.85;53.42;99920.50;5071935;28;20040;-84
2023/08/06 05:04:49;;;;;;;3.58;2.00;;;;;;;15.84;52.93;99918.78;5066847;28;20460;-84
2023/08/06 05:07:17;;;;;;;3.35;1.95;;;;;;;15.85;53.28;99920.50;5062861;28;20101;-84
2023/08/06 05:09:45;;;;;;;3.60;2.08;;;;;;;15.85;53.64;99926.03;5061089;28;20068;-83
2023/08/06 05:12:13;;;;;;;4.18;2.10;;;;;;;15.85;53.60;99924.13;5061471;28;20048;-84
2023/08/06 05:14:42;;;;;;;3.10;1.92;;;;;;;15.89;53.38;99917.19;5056630;28;20036;-83
2023/08/06 05:17:10;;;;;;;2.88;1.75;;;;;;;15.88;53.64;99922.88;5054830;28;20067;-84
2023/08/06 05:19:38;;;;;;;4.35;2.08;;;;;;;15.88;53.85;99932.03;5046251;28;20543;-84
2023/08/06 05:22:06;;;;;;;3.08;2.00;;;;;;;15.90;53.72;99934.59;5061584;28;20041;-83
2023/08/06 05:24:34;;;;;;;2.95;2.03;;;;;;;15.92;53.58;99926.13;5059379;28;20052;-84
2023/08/06 05:27:02;;;;;;;3.33;1.95;;;;;;;15.93;53.49;99936.09;5058311;28;20140;-84
2023/08/06 05:29:30;;;;;;;3.80;2.10;;;;;;;15.95;54.00;99934.00;5054504;28;20062;-83
2023/08/06 05:31:59;;;;;;;3.50;1.90;;;;;;;15.98;53.70;99941.91;5057041;28;20041;-83
2023/08/06 05:34:27;;;;;;;3.75;2.10;;;;;;;15.98;53.53;99937.25;5054838;28;20520;-83
2023/08/06 05:36:55;;;;;;;3.92;2.00;;;;;;;15.98;53.92;99937.25;5048697;28;20072;-84
2023/08/06 05:39:24;;;;;;;3.13;1.63;;;;;;;16.01;53.52;99945.13;5055542;28;20491;-84
2023/08/06 05:42:12;;;;;;;3.17;1.75;;;;;;;16.02;54.04;99946.84;5058057;28;20048;-84
2023/08/06 05:44:44;;;;;;;3.80;1.98;;;;;;;16.02;53.82;99938.56;5052157;28;20056;-84
2023/08/06 05:47:15;;;;;;;3.35;1.65;;;;;;;16.07;53.55;99949.91;5054954;28;20103;-84
2023/08/06 05:49:43;;;;;;;3.35;1.73;;;;;;;16.04;53.77;99946.66;5056331;28;20066;-84
2023/08/06 05:52:11;;;;;;;2.97;1.75;;;;;;;16.06;53.69;99950.09;5063044;28;20093;-84
2023/08/06 05:54:40;;;;;;;3.55;1.88;;;;;;;16.06;53.50;99950.09;5056073;28;20123;-84
2023/08/06 05:57:08;;;;;;;2.97;1.58;;;;;;;16.07;53.23;99949.91;5059220;28;20075;-84
2023/08/06 05:59:36;;;;;;;2.97;1.40;;;;;;;16.08;53.40;99951.63;5067524;28;20060;-84
2023/08/06 06:02:04;;;;;;;3.10;1.40;;;;;;;16.08;53.33;99940.59;5066105;28;20048;-83
2023/08/06 06:04:34;;;;;;;3.58;1.50;;;;;;;16.12;53.67;99946.56;5073357;28;20135;-84
2023/08/06 06:07:02;;;;;;;2.33;1.30;;;;;;;16.12;53.83;99952.06;5063878;28;20072;-84
2023/08/06 06:09:30;;;;;;;2.10;1.10;;;;;;;16.14;53.42;99961.03;5057495;28;20101;-85
2023/08/06 06:11:58;;;;;;;2.67;1.40;;;;;;;16.14;53.65;99956.38;5051847;28;20060;-84
2023/08/06 06:14:26;;;;;;;3.65;1.50;;;;;;;16.16;53.50;99964.47;5056117;28;20040;-84
2023/08/06 06:16:54;;;;;;;2.40;1.35;;;;;;;16.16;53.41;99962.56;5069574;28;20097;-84
2023/08/06 06:19:22;;;;;;;3.75;1.80;;;;;;;16.19;53.88;99964.09;5053640;28;20086;-84
2023/08/06 06:21:51;;;;;;;2.58;1.05;;;;;;;16.22;53.61;99964.56;5057085;28;20055;-83
2023/08/06 06:24:20;;;;;;;3.28;1.30;;;;;;;16.20;53.53;99974.09;5057008;28;20079;-84
2023/08/06 06:26:48;;;;;;;2.85;1.38;;;;;;;16.22;53.57;99972.84;5073969;28;20116;-84
2023/08/06 06:29:16;;;;;;;3.83;1.80;;;;;;;16.21;53.81;99973.03;5054013;28;20036;-83
2023/08/06 06:31:44;;;;;;;5.00;1.42;;;;;;;16.23;53.35;99982.84;5058884;28;20097;-83
2023/08/06 06:34:12;;;;;;;2.22;1.45;;;;;;;16.21;53.57;99979.41;5062567;28;20071;-83
2023/08/06 06:36:40;;;;;;;3.25;1.40;;;;;;;16.23;53.10;99973.72;5062103;28;20045;-84
2023/08/06 06:39:09;;;;;;;3.35;1.70;;;;;;;16.24;53.08;99983.72;5059240;28;20067;-85
2023/08/06 06:41:37;;;;;;;2.50;1.23;;;;;;;16.22;53.30;99974.75;5066377;28;20086;-84
2023/08/06 06:44:15;;;;;;;2.90;1.30;;;;;;;16.23;53.37;99977.34;5076386;28;20067;-84
2023/08/06 06:46:43;;;;;;;2.47;1.42;;;;;;;16.26;53.59;99981.59;5079368;28;20052;-83
2023/08/06 06:49:11;;;;;;;2.53;1.40;;;;;;;16.27;53.32;99986.06;5066287;28;20044;-84
2023/08/06 06:51:39;;;;;;;2.75;1.40;;;;;;;16.27;53.41;99978.66;5060329;28;20075;-83
2023/08/06 06:54:09;;;;;;;2.65;1.50;;;;;;;16.33;53.53;99979.75;5054932;28;20441;-84
2023/08/06 06:56:37;;;;;;;2.83;1.30;;;;;;;16.33;53.45;99985.28;5057123;28;20054;-83
2023/08/06 06:59:05;;;;;;;2.67;1.35;;;;;;;16.37;53.51;99981.09;5052598;28;20591;-84
2023/08/06 07:01:33;;;;;;;2.83;1.50;;;;;;;16.39;53.46;99978.16;5055640;28;20050;-84
2023/08/06 07:04:04;;;;;;;2.25;1.40;;;;;;;16.41;52.95;99982.44;5060745;28;20048;-84
2023/08/06 07:06:33;;;;;;;2.15;1.40;;;;;;;16.46;53.10;99991.00;5070137;28;20111;-85
2023/08/06 07:09:00;;;;;;;2.15;1.50;;;;;;;16.49;53.27;99987.00;5059381;28;20101;-84
2023/08/06 07:11:30;;;;;;;3.28;1.60;;;;;;;16.54;53.40;99984.50;5061463;28;20064;-84
2023/08/06 07:13:59;;;;;;;3.22;1.50;;;;;;;16.56;53.13;99987.94;5064048;28;20465;-84
2023/08/06 07:16:27;;;;;;;2.95;1.42;;;;;;;16.57;53.22;99984.97;5057951;28;20078;-84
2023/08/06 07:18:56;;;;;;;2.30;1.25;;;;;;;16.63;53.17;99986.09;5063880;28;20431;-85
2023/08/06 07:21:24;;;;;;;2.97;1.48;;;;;;;16.65;53.56;99992.28;5053859;28;20044;-84
2023/08/06 07:23:52;;;;;;;3.53;1.30;;;;;;;16.68;53.54;99983.59;5080648;28;20040;-84
2023/08/06 07:26:20;;;;;;;2.60;1.50;;;;;;;16.73;53.05;99983.88;5065386;28;20505;-84
2023/08/06 07:28:49;;;;;;;2.42;1.60;;;;;;;16.79;53.18;99985.00;5064955;28;20564;-84
2023/08/06 07:31:17;;;;;;;2.97;1.50;;;;;;;16.82;53.62;99984.63;5048850;28;20105;-85
2023/08/06 07:33:45;;;;;;;2.72;1.42;;;;;;;16.86;53.33;99985.91;5053562;28;20045;-85
2023/08/06 07:36:14;;;;;;;2.65;1.63;;;;;;;16.89;53.19;99989.16;5057525;28;20491;-84
2023/08/06 07:38:43;;;;;;;2.47;1.30;;;;;;;16.93;53.16;99996.00;5055766;28;20143;-83
2023/08/06 07:41:11;;;;;;;2.08;1.27;;;;;;;16.97;53.32;99999.25;5073132;28;20075;-83
2023/08/06 07:43:39;;;;;;;2.85;1.40;;;;;;;17.00;53.07;99996.09;5061147;28;20087;-84
2023/08/06 07:46:08;;;;;;;2.00;1.40;;;;;;;17.06;52.86;99994.47;5071413;28;20040;-83
2023/08/06 07:48:36;;;;;;;3.17;1.42;;;;;;;17.09;52.76;99997.66;5059259;28;20136;-84
2023/08/06 07:51:04;;;;;;;1.85;1.35;;;;;;;17.14;53.05;100002.63;5087503;28;20043;-83
2023/08/06 07:53:32;;;;;;;3.78;1.40;;;;;;;17.16;52.62;99998.59;5058477;28;20041;-83
2023/08/06 07:56:02;;;;;;;2.05;1.40;;;;;;;17.19;52.78;99995.44;5073383;28;20567;-84
2023/08/06 07:58:30;;;;;;;1.90;1.30;;;;;;;17.23;52.68;99996.75;5062760;28;20452;-84
2023/08/06 08:00:58;;;;;;;2.17;1.25;;;;;;;17.28;52.80;99999.78;5063071;28;20458;-83
2023/08/06 08:03:29;;;;;;;2.42;1.30;;;;;;;17.31;52.76;99995.75;5052518;28;20049;-83
2023/08/06 08:05:59;;;;;;;2.55;1.48;;;;;;;17.34;52.83;100004.50;5058527;28;20076;-83
2023/08/06 08:08:27;;;;;;;2.55;1.40;;;;;;;17.37;52.46;100004.13;5041437;28;20049;-85
2023/08/06 08:10:58;;;;;;;2.08;1.33;;;;;;;17.41;52.64;100004.56;5055717;28;20033;-84
2023/08/06 08:13:26;;;;;;;2.00;1.38;;;;;;;17.43;52.19;100005.22;5060457;28;20054;-84
2023/08/06 08:15:58;;;;;;;3.55;1.83;;;;;;;17.48;52.05;100010.16;5059338;28;20045;-85
2023/08/06 08:18:27;;;;;;;2.75;1.70;;;;;;;17.48;51.99;100007.41;5054124;28;20094;-84
2023/08/06 08:20:56;;;;;;;2.70;1.92;;;;;;;17.54;51.80;100015.75;5061940;28;20052;-83
2023/08/06 08:23:24;;;;;;;2.92;1.52;;;;;;;17.55;52.11;100019.38;5061654;28;20040;-85
2023/08/06 08:25:52;;;;;;;3.15;1.83;;;;;;;17.56;51.63;100019.19;5072605;28;20106;-84
2023/08/06 08:28:20;;;;;;;3.38;1.70;;;;;;;17.58;51.93;100016.19;5066103;28;20055;-83
2023/08/06 08:30:48;;;;;;;3.90;2.03;;;;;;;17.62;51.51;100028.56;5067393;28;20044;-83
2023/08/06 08:33:16;;;;;;;3.80;2.03;;;;;;;17.63;51.62;100022.00;5055376;28;20048;-83
2023/08/06 08:35:47;;;;;;;3.33;2.20;;;;;;;17.66;51.36;100024.34;5066691;28;20083;-83
2023/08/06 08:38:16;;;;;;;4.03;2.40;;;;;;;17.67;51.35;100026.06;5045844;28;20053;-84
2023/08/06 08:40:48;;;;;;;3.70;2.40;;;;;;;17.69;51.36;100023.94;5071216;28;20051;-83
2023/08/06 08:43:16;;;;;;;3.17;1.97;;;;;;;17.65;51.74;100023.47;5067199;28;20076;-84
2023/08/06 08:45:50;;;;;;;3.40;2.17;;;;;;;17.70;51.44;100022.91;5055003;28;20298;-84
2023/08/06 08:48:19;;;;;;;3.22;2.25;;;;;;;17.70;51.95;100028.44;5061839;28;20507;-84
2023/08/06 08:50:49;;;;;;;4.20;2.38;;;;;;;17.73;51.81;100028.88;5054349;28;20511;-84
2023/08/06 08:53:19;;;;;;;4.38;2.10;;;;;;;17.75;51.51;100023.16;5051850;28;20048;-84
2023/08/06 08:55:48;;;;;;;3.10;2.25;;;;;;;17.78;51.50;100033.84;5059794;28;20518;-84
2023/08/06 08:58:17;;;;;;;3.40;2.03;;;;;;;17.80;51.36;100025.34;5051977;28;20040;-84
2023/08/06 09:00:48;;;;;;;4.47;2.30;;;;;;;17.84;51.30;100029.41;5057088;28;20045;-84
2023/08/06 09:03:17;;;;;;;3.25;2.13;;;;;;;17.86;51.75;100036.47;5057354;28;20263;-84
2023/08/06 09:05:49;;;;;;;3.70;2.10;;;;;;;17.89;51.63;100035.22;5054309;28;20078;-83
2023/08/06 09:08:26;;;;;;;3.27;2.03;;;;;;;17.90;51.48;100036.91;5047195;28;20561;-83
2023/08/06 09:11:00;;;;;;;3.75;2.03;;;;;;;17.97;51.45;100046.13;5047598;28;20041;-83
2023/08/06 09:13:32;;;;;;;3.45;1.85;;;;;;;17.98;51.26;100040.38;5030283;28;20043;-81
2023/08/06 09:16:00;;;;;;;2.25;1.60;;;;;;;18.04;51.06;100042.34;5057562;28;20435;-82
2023/08/06 09:18:31;;;;;;;2.95;1.55;;;;;;;18.11;51.07;100048.78;5058393;28;20048;-83
2023/08/06 09:20:59;;;;;;;2.40;1.73;;;;;;;18.14;51.13;100036.44;5070437;28;20044;-84
2023/08/06 09:23:33;;;;;;;2.80;1.65;;;;;;;18.22;51.13;100046.50;5063065;28;20704;-84
2023/08/06 09:26:02;;;;;;;2.38;1.48;;;;;;;18.25;51.27;100044.16;5058477;28;20041;-85
2023/08/06 09:28:39;;;;;;;2.55;1.52;;;;;;;18.37;50.40;100052.78;5057321;28;20461;-83
2023/08/06 09:31:12;;;;;;;2.03;1.50;;;;;;;18.45;51.31;100050.69;5054305;28;20182;-84
2023/08/06 09:33:44;;;;;;;2.30;1.45;;;;;;;18.52;50.85;100053.50;5050984;28;20055;-83
2023/08/06 09:36:13;;;;;;;2.30;1.70;;;;;;;18.60;50.60;100056.09;5055818;28;20513;-84
2023/08/06 09:38:42;;;;;;;3.10;1.80;;;;;;;18.70;50.29;100064.91;5059857;28;20105;-82
2023/08/06 09:41:10;;;;;;;2.58;1.80;;;;;;;18.74;50.14;100073.63;5050946;28;20040;-83
2023/08/06 09:43:42;;;;;;;4.13;1.83;;;;;;;18.82;50.22;100079.84;5051355;28;20063;-83
2023/08/06 09:46:16;;;;;;;;;;;;;;;18.53;51.31;100080.16;5058881;28;20040;-85
2023/08/06 09:48:48;;;;;;;3.65;1.60;;;;;;;18.80;51.13;100089.47;5055211;28;19920;-85
2023/08/06 09:51:17;;;;;;;4.05;1.95;;;;;;;18.84;50.89;100091.59;5055059;28;20044;-86
2023/08/06 09:53:50;;;;;;;3.80;1.70;;;;;;;18.88;50.79;100092.06;5055135;28;20053;-86
2023/08/06 09:56:19;;;;;;;3.20;1.48;;;;;;;18.88;50.62;100098.44;5073924;28;20047;-85
2023/08/06 09:58:50;;;;;;;2.88;1.42;;;;;;;18.92;50.73;100101.66;5053633;28;20473;-83
2023/08/06 10:01:19;;;;;;;3.05;1.70;;;;;;;18.89;50.42;100096.50;5044510;28;20037;-86
2023/08/06 10:03:50;;;;;;;3.55;1.48;;;;;;;18.88;50.55;100106.75;5056372;28;20499;-87
2023/08/06 10:06:19;;;;;;;3.20;1.67;;;;;;;18.87;50.39;100106.97;5075553;28;20063;-85
2023/08/06 10:08:54;;;;;;;2.13;1.20;;;;;;;18.83;50.32;100103.75;5072064;28;20552;-87
2023/08/06 10:37:37;;;;;;;1.23;0.70;;;;;;;18.15;49.62;100133.16;4814248;29;20053;-86
2023/08/06 10:40:08;;;;;;;1.60;0.60;;;;;;;18.11;49.55;100129.09;4903929;29;20055;-87
2023/08/06 10:42:36;;;;;;;0.93;0.70;;;;;;;18.01;49.59;100142.41;4929687;29;20052;-84
2023/08/06 10:45:16;;;;;;;0.60;0.60;;;;;;;17.99;49.71;100147.28;5030536;28;20044;-85
2023/08/06 10:47:44;;;;;;;1.23;0.60;;;;;;;17.91;49.76;100141.91;5063723;28;20040;-87
2023/08/06 10:50:16;;;;;;;0.68;0.50;;;;;;;17.87;49.30;100156.34;5066711;28;20040;-86
2023/08/06 10:52:44;;;;;;;0.40;0.40;;;;;;;17.77;49.70;100160.31;5054097;28;20499;-85
2023/08/06 10:55:12;;;;;;;0.57;0.40;;;;;;;17.72;49.19;100148.94;5061190;28;20040;-84
2023/08/06 10:57:40;;;;;;;0.40;0.30;;;;;;;17.67;49.35;100167.19;5065423;28;20036;-85
2023/08/06 11:00:09;;;;;;;1.08;0.50;;;;;;;17.63;49.17;100174.19;5072903;28;20431;-85
2023/08/06 11:02:44;;;;;;;0.75;0.60;;;;;;;17.55;49.14;100166.00;5053266;28;20048;-86
2023/08/06 11:05:14;;;;;;;0.82;0.63;;;;;;;17.51;49.26;100181.28;5080904;28;20039;-84
2023/08/06 11:07:44;;;;;;;1.15;0.80;;;;;;;17.43;49.28;100176.72;5064213;28;20060;-86
2023/08/06 11:10:13;;;;;;;0.98;0.60;;;;;;;17.37;49.39;100183.03;5053576;28;20142;-87
2023/08/06 11:12:41;;;;;;;1.27;0.77;;;;;;;17.30;49.53;100176.59;5054689;28;20041;-86
2023/08/06 11:15:11;;;;;;;0.98;0.70;;;;;;;17.24;49.68;100178.19;5057425;28;20044;-86
2023/08/06 11:17:42;;;;;;;1.55;0.85;;;;;;;17.22;49.79;100173.94;5055308;28;20044;-85
2023/08/06 11:20:11;;;;;;;1.58;0.90;;;;;;;17.17;50.05;100184.69;5055518;28;20131;-85
2023/08/06 11:22:41;;;;;;;1.40;0.93;;;;;;;17.14;49.69;100188.72;5055160;28;20056;-85
2023/08/06 11:25:09;;;;;;;2.13;1.17;;;;;;;17.10;50.50;100198.44;5052393;28;20060;-84
2023/08/06 11:27:37;;;;;;;1.70;1.00;;;;;;;17.08;50.35;100195.00;5056942;28;20044;-85
2023/08/06 11:30:07;;;;;;;1.70;1.02;;;;;;;17.05;50.18;100195.41;5053341;28;20087;-85
2023/08/06 11:32:46;;;;;;;2.42;1.40;;;;;;;17.05;50.50;100202.84;5051655;28;20048;-86
2023/08/06 11:35:15;;;;;;;2.45;1.40;;;;;;;16.99;50.51;100196.16;5064744;28;20055;-85
2023/08/06 11:37:46;;;;;;;3.55;1.40;;;;;;;17.00;50.05;100208.94;5061702;28;20059;-85
2023/08/06 11:40:16;;;;;;;2.38;1.20;;;;;;;16.96;50.06;100200.16;5063242;28;20044;-86
2023/08/06 11:42:44;;;;;;;2.55;1.70;;;;;;;16.91;49.79;100204.53;5068825;28;20051;-86
2023/08/06 11:45:12;;;;;;;3.50;1.83;;;;;;;16.88;50.40;100218.75;5089460;28;20101;-86
2023/08/06 11:47:41;;;;;;;2.90;1.55;;;;;;;16.86;50.60;100215.31;5075029;28;20044;-86
2023/08/06 11:50:09;;;;;;;2.85;1.45;;;;;;;16.83;50.56;100218.44;5063703;28;20053;-86
2023/08/06 11:52:42;;;;;;;4.13;1.70;;;;;;;16.82;50.69;100216.75;5065424;28;20038;-86
2023/08/06 11:55:11;;;;;;;2.70;1.58;;;;;;;16.77;50.61;100220.06;5070746;28;20040;-85
2023/08/06 11:57:40;;;;;;;3.58;1.73;;;;;;;16.75;50.82;100224.06;5072238;28;20048;-84
2023/08/06 12:00:11;;;;;;;3.97;1.63;;;;;;;16.73;50.76;100221.50;5074891;28;20391;-85
2023/08/06 12:03:02;;;;;;;3.28;1.73;;;;;;;16.70;51.11;100223.78;5055852;28;20135;-85
2023/08/06 12:13:46;;;;;;;3.90;1.55;;;;;;;16.58;51.36;100226.13;5008159;28;20103;-86